sensor_id;sensor_type;location;lat;lon;timestamp;temperature;humidity
54461;DHT22;40371;49.414;11.010;2023-03-11T00:00:32;3.70;99.90
54461;DHT22;40371;49.414;11.010;2023-03-11T00:02:59;3.70;99.90
54461;DHT22;40371;49.414;11.010;2023-03-11T00:05:28;3.60;99.90
54461;DHT22;40371;49.414;11.010;2023-03-11T00:07:55;3.60;99.90
54461;DHT22;40371;49.414;11.010;2023-03-11T00:10:24;3.60;99.90
54461;DHT22;40371;49.414;11.010;2023-03-11T00:12:50;3.70;99.90
54461;DHT22;40371;49.414;11.010;2023-03-11T00:15:16;3.60;99.90
54461;DHT22;40371;49.414;11.010;2023-03-11T00:17:41;3.60;99.90
54461;DHT22;40371;49.414;11.010;2023-03-11T00:20:12;3.50;99.90
54461;DHT22;40371;49.414;11.010;2023-03-11T00:22:39;3.50;99.90
54461;DHT22;40371;49.414;11.010;2023-03-11T00:25:05;3.50;99.90
54461;DHT22;40371;49.414;11.010;2023-03-11T00:27:31;3.50;99.90
54461;DHT22;40371;49.414;11.010;2023-03-11T00:29:56;3.50;99.90
54461;DHT22;40371;49.414;11.010;2023-03-11T00:32:22;3.50;99.90
54461;DHT22;40371;49.414;11.010;2023-03-11T00:34:48;3.50;99.90
54461;DHT22;40371;49.414;11.010;2023-03-11T00:37:13;3.40;99.90
54461;DHT22;40371;49.414;11.010;2023-03-11T00:39:39;3.40;99.90
54461;DHT22;40371;49.414;11.010;2023-03-11T00:42:04;3.50;99.90
54461;DHT22;40371;49.414;11.010;2023-03-11T00:44:31;3.40;99.90
54461;DHT22;40371;49.414;11.010;2023-03-11T00:46:57;3.40;99.90
54461;DHT22;40371;49.414;11.010;2023-03-11T00:49:22;3.40;99.90
54461;DHT22;40371;49.414;11.010;2023-03-11T00:51:48;3.40;99.90
54461;DHT22;40371;49.414;11.010;2023-03-11T00:54:14;3.20;99.90
54461;DHT22;40371;49.414;11.010;2023-03-11T00:56:39;3.20;99.90
54461;DHT22;40371;49.414;11.010;2023-03-11T00:59:06;3.30;99.90
54461;DHT22;40371;49.414;11.010;2023-03-11T01:01:32;3.20;99.90
54461;DHT22;40371;49.414;11.010;2023-03-11T01:03:57;3.20;99.90
54461;DHT22;40371;49.414;11.010;2023-03-11T01:06:23;3.20;99.90
54461;DHT22;40371;49.414;11.010;2023-03-11T01:08:51;3.10;99.90
54461;DHT22;40371;49.414;11.010;2023-03-11T01:11:16;3.10;99.90
54461;DHT22;40371;49.414;11.010;2023-03-11T01:13:43;3.00;99.90
54461;DHT22;40371;49.414;11.010;2023-03-11T01:16:09;3.00;99.90
54461;DHT22;40371;49.414;11.010;2023-03-11T01:18:35;3.00;99.90
54461;DHT22;40371;49.414;11.010;2023-03-11T01:21:00;3.00;99.90
54461;DHT22;40371;49.414;11.010;2023-03-11T01:23:26;2.90;99.90
54461;DHT22;40371;49.414;11.010;2023-03-11T01:25:53;3.00;99.90
54461;DHT22;40371;49.414;11.010;2023-03-11T01:28:18;3.00;99.90
54461;DHT22;40371;49.414;11.010;2023-03-11T01:30:44;2.90;99.90
54461;DHT22;40371;49.414;11.010;2023-03-11T01:33:17;2.90;99.90
54461;DHT22;40371;49.414;11.010;2023-03-11T01:35:44;2.90;99.90
54461;DHT22;40371;49.414;11.010;2023-03-11T01:38:11;2.90;99.90
54461;DHT22;40371;49.414;11.010;2023-03-11T01:40:45;2.90;99.90
54461;DHT22;40371;49.414;11.010;2023-03-11T01:46:24;2.80;99.90
54461;DHT22;40371;49.414;11.010;2023-03-11T01:48:52;2.80;99.90
54461;DHT22;40371;49.414;11.010;2023-03-11T01:51:43;2.80;99.90
54461;DHT22;40371;49.414;11.010;2023-03-11T01:54:13;2.80;99.90
54461;DHT22;40371;49.414;11.010;2023-03-11T01:56:42;2.80;99.90
54461;DHT22;40371;49.414;11.010;2023-03-11T01:59:11;2.80;99.90
54461;DHT22;40371;49.414;11.010;2023-03-11T02:01:44;2.80;99.90
54461;DHT22;40371;49.414;11.010;2023-03-11T02:04:13;2.70;99.90
54461;DHT22;40371;49.414;11.010;2023-03-11T02:06:39;2.70;99.90
54461;DHT22;40371;49.414;11.010;2023-03-11T02:09:05;2.70;99.90
54461;DHT22;40371;49.414;11.010;2023-03-11T02:11:31;2.60;99.90
54461;DHT22;40371;49.414;11.010;2023-03-11T02:14:02;2.60;99.90
54461;DHT22;40371;49.414;11.010;2023-03-11T02:16:29;2.60;99.90
54461;DHT22;40371;49.414;11.010;2023-03-11T02:18:59;2.60;99.90
54461;DHT22;40371;49.414;11.010;2023-03-11T02:21:31;2.60;99.90
54461;DHT22;40371;49.414;11.010;2023-03-11T02:29:26;2.60;99.90
54461;DHT22;40371;49.414;11.010;2023-03-11T02:31:52;2.50;99.90
54461;DHT22;40371;49.414;11.010;2023-03-11T02:34:31;2.50;99.90
54461;DHT22;40371;49.414;11.010;2023-03-11T02:36:58;2.50;99.90
54461;DHT22;40371;49.414;11.010;2023-03-11T02:39:46;2.50;99.90
54461;DHT22;40371;49.414;11.010;2023-03-11T02:42:27;2.50;99.90
54461;DHT22;40371;49.414;11.010;2023-03-11T02:45:08;2.40;99.90
54461;DHT22;40371;49.414;11.010;2023-03-11T02:47:36;2.40;99.90
54461;DHT22;40371;49.414;11.010;2023-03-11T02:50:05;2.40;99.90
54461;DHT22;40371;49.414;11.010;2023-03-11T02:52:33;2.40;99.90
54461;DHT22;40371;49.414;11.010;2023-03-11T02:55:00;2.40;99.90
54461;DHT22;40371;49.414;11.010;2023-03-11T02:57:26;2.40;99.90
54461;DHT22;40371;49.414;11.010;2023-03-11T02:59:52;2.40;99.90
54461;DHT22;40371;49.414;11.010;2023-03-11T03:02:18;2.40;99.90
54461;DHT22;40371;49.414;11.010;2023-03-11T03:04:44;2.30;99.90
54461;DHT22;40371;49.414;11.010;2023-03-11T03:07:09;2.30;99.90
54461;DHT22;40371;49.414;11.010;2023-03-11T03:09:36;2.40;99.90
54461;DHT22;40371;49.414;11.010;2023-03-11T03:12:03;2.30;99.90
54461;DHT22;40371;49.414;11.010;2023-03-11T03:14:31;2.40;99.90
54461;DHT22;40371;49.414;11.010;2023-03-11T03:16:56;2.40;99.90
54461;DHT22;40371;49.414;11.010;2023-03-11T03:19:22;2.40;99.90
54461;DHT22;40371;49.414;11.010;2023-03-11T03:21:48;2.40;99.90
54461;DHT22;40371;49.414;11.010;2023-03-11T03:26:45;2.30;99.90
54461;DHT22;40371;49.414;11.010;2023-03-11T03:29:11;2.30;99.90
54461;DHT22;40371;49.414;11.010;2023-03-11T03:31:37;2.40;99.90
54461;DHT22;40371;49.414;11.010;2023-03-11T03:34:03;2.30;99.90
54461;DHT22;40371;49.414;11.010;2023-03-11T03:36:28;2.30;99.90
54461;DHT22;40371;49.414;11.010;2023-03-11T03:38:59;2.30;99.90
54461;DHT22;40371;49.414;11.010;2023-03-11T03:41:30;2.20;99.90
54461;DHT22;40371;49.414;11.010;2023-03-11T03:43:56;2.20;99.90
54461;DHT22;40371;49.414;11.010;2023-03-11T03:46:23;2.20;99.90
54461;DHT22;40371;49.414;11.010;2023-03-11T03:48:51;2.20;99.90
54461;DHT22;40371;49.414;11.010;2023-03-11T03:51:17;2.20;99.90
54461;DHT22;40371;49.414;11.010;2023-03-11T03:53:56;2.20;99.90
54461;DHT22;40371;49.414;11.010;2023-03-11T03:56:23;2.20;99.90
54461;DHT22;40371;49.414;11.010;2023-03-11T03:58:48;2.20;99.90
54461;DHT22;40371;49.414;11.010;2023-03-11T04:01:14;2.30;99.90
54461;DHT22;40371;49.414;11.010;2023-03-11T04:03:40;2.20;99.90
54461;DHT22;40371;49.414;11.010;2023-03-11T04:06:18;2.20;99.90
54461;DHT22;40371;49.414;11.010;2023-03-11T04:08:47;2.20;99.90
54461;DHT22;40371;49.414;11.010;2023-03-11T04:11:13;2.20;99.90
54461;DHT22;40371;49.414;11.010;2023-03-11T04:13:40;2.20;99.90
54461;DHT22;40371;49.414;11.010;2023-03-11T04:16:06;2.30;99.90
54461;DHT22;40371;49.414;11.010;2023-03-11T04:18:33;2.20;99.90
54461;DHT22;40371;49.414;11.010;2023-03-11T04:20:59;2.20;99.90
54461;DHT22;40371;49.414;11.010;2023-03-11T04:23:24;2.10;99.90
54461;DHT22;40371;49.414;11.010;2023-03-11T04:25:50;2.10;99.90
54461;DHT22;40371;49.414;11.010;2023-03-11T04:28:16;2.10;99.90
54461;DHT22;40371;49.414;11.010;2023-03-11T04:30:43;2.20;99.90
54461;DHT22;40371;49.414;11.010;2023-03-11T04:33:09;2.20;99.90
54461;DHT22;40371;49.414;11.010;2023-03-11T04:35:37;2.10;99.90
54461;DHT22;40371;49.414;11.010;2023-03-11T04:38:03;2.10;99.90
54461;DHT22;40371;49.414;11.010;2023-03-11T04:40:29;2.10;99.90
54461;DHT22;40371;49.414;11.010;2023-03-11T04:42:55;2.10;99.90
54461;DHT22;40371;49.414;11.010;2023-03-11T04:45:21;2.10;99.90
54461;DHT22;40371;49.414;11.010;2023-03-11T04:47:49;2.00;99.90
54461;DHT22;40371;49.414;11.010;2023-03-11T04:50:16;2.00;99.90
54461;DHT22;40371;49.414;11.010;2023-03-11T04:52:43;2.00;99.90
54461;DHT22;40371;49.414;11.010;2023-03-11T04:55:09;2.00;99.90
54461;DHT22;40371;49.414;11.010;2023-03-11T04:57:35;2.10;99.90
54461;DHT22;40371;49.414;11.010;2023-03-11T05:00:03;2.00;99.90
54461;DHT22;40371;49.414;11.010;2023-03-11T05:02:34;2.00;99.90
54461;DHT22;40371;49.414;11.010;2023-03-11T05:05:00;2.00;99.90
54461;DHT22;40371;49.414;11.010;2023-03-11T05:07:27;2.10;99.90
54461;DHT22;40371;49.414;11.010;2023-03-11T05:09:52;2.00;99.90
54461;DHT22;40371;49.414;11.010;2023-03-11T05:12:18;2.00;99.90
54461;DHT22;40371;49.414;11.010;2023-03-11T05:14:48;2.00;99.90
54461;DHT22;40371;49.414;11.010;2023-03-11T05:17:13;2.10;99.90
54461;DHT22;40371;49.414;11.010;2023-03-11T05:19:40;2.00;99.90
54461;DHT22;40371;49.414;11.010;2023-03-11T05:22:11;2.00;99.90
54461;DHT22;40371;49.414;11.010;2023-03-11T05:24:37;2.00;99.90
54461;DHT22;40371;49.414;11.010;2023-03-11T05:27:03;2.00;99.90
54461;DHT22;40371;49.414;11.010;2023-03-11T05:29:30;2.00;99.90
54461;DHT22;40371;49.414;11.010;2023-03-11T05:31:55;2.00;99.90
54461;DHT22;40371;49.414;11.010;2023-03-11T05:34:22;1.90;99.90
54461;DHT22;40371;49.414;11.010;2023-03-11T05:36:47;1.80;99.90
54461;DHT22;40371;49.414;11.010;2023-03-11T05:39:13;1.80;99.90
54461;DHT22;40371;49.414;11.010;2023-03-11T05:41:39;1.80;99.90
54461;DHT22;40371;49.414;11.010;2023-03-11T05:44:05;1.80;99.90
54461;DHT22;40371;49.414;11.010;2023-03-11T05:46:30;1.80;99.90
54461;DHT22;40371;49.414;11.010;2023-03-11T05:48:58;1.90;99.90
54461;DHT22;40371;49.414;11.010;2023-03-11T05:51:24;1.80;99.90
54461;DHT22;40371;49.414;11.010;2023-03-11T05:53:50;1.90;99.90
54461;DHT22;40371;49.414;11.010;2023-03-11T05:56:23;2.00;99.90
54461;DHT22;40371;49.414;11.010;2023-03-11T05:58:51;1.90;99.90
54461;DHT22;40371;49.414;11.010;2023-03-11T06:01:18;1.90;99.90
54461;DHT22;40371;49.414;11.010;2023-03-11T06:03:45;2.00;99.90
54461;DHT22;40371;49.414;11.010;2023-03-11T06:06:12;2.00;99.90
54461;DHT22;40371;49.414;11.010;2023-03-11T06:08:39;1.90;99.90
54461;DHT22;40371;49.414;11.010;2023-03-11T06:11:10;1.90;99.90
54461;DHT22;40371;49.414;11.010;2023-03-11T06:13:37;2.00;99.90
54461;DHT22;40371;49.414;11.010;2023-03-11T06:16:03;2.10;99.90
54461;DHT22;40371;49.414;11.010;2023-03-11T06:18:29;2.10;99.90
54461;DHT22;40371;49.414;11.010;2023-03-11T06:21:00;2.10;99.90
54461;DHT22;40371;49.414;11.010;2023-03-11T06:23:26;2.10;99.90
54461;DHT22;40371;49.414;11.010;2023-03-11T06:25:57;2.10;99.90
54461;DHT22;40371;49.414;11.010;2023-03-11T06:28:24;2.20;99.90
54461;DHT22;40371;49.414;11.010;2023-03-11T06:30:50;2.10;99.90
54461;DHT22;40371;49.414;11.010;2023-03-11T06:33:16;2.30;99.90
54461;DHT22;40371;49.414;11.010;2023-03-11T06:35:42;2.20;99.90
54461;DHT22;40371;49.414;11.010;2023-03-11T06:38:08;2.30;99.90
54461;DHT22;40371;49.414;11.010;2023-03-11T06:40:36;2.20;99.90
54461;DHT22;40371;49.414;11.010;2023-03-11T06:43:02;2.20;99.90
54461;DHT22;40371;49.414;11.010;2023-03-11T06:45:31;2.20;99.90
54461;DHT22;40371;49.414;11.010;2023-03-11T06:47:57;2.30;99.90
54461;DHT22;40371;49.414;11.010;2023-03-11T06:50:24;2.30;99.90
54461;DHT22;40371;49.414;11.010;2023-03-11T06:52:52;2.30;99.90
54461;DHT22;40371;49.414;11.010;2023-03-11T06:55:18;2.30;99.90
54461;DHT22;40371;49.414;11.010;2023-03-11T06:57:45;2.30;99.90
54461;DHT22;40371;49.414;11.010;2023-03-11T07:00:11;2.40;99.90
54461;DHT22;40371;49.414;11.010;2023-03-11T07:02:39;2.50;99.90
54461;DHT22;40371;49.414;11.010;2023-03-11T07:05:05;2.40;99.90
54461;DHT22;40371;49.414;11.010;2023-03-11T07:07:31;2.30;99.90
54461;DHT22;40371;49.414;11.010;2023-03-11T07:09:59;2.30;99.90
54461;DHT22;40371;49.414;11.010;2023-03-11T07:12:25;2.30;99.90
54461;DHT22;40371;49.414;11.010;2023-03-11T07:14:57;2.30;99.90
54461;DHT22;40371;49.414;11.010;2023-03-11T07:17:24;2.30;99.90
54461;DHT22;40371;49.414;11.010;2023-03-11T07:19:51;2.40;99.90
54461;DHT22;40371;49.414;11.010;2023-03-11T07:22:17;2.30;99.90
54461;DHT22;40371;49.414;11.010;2023-03-11T07:24:48;2.30;99.90
54461;DHT22;40371;49.414;11.010;2023-03-11T07:27:14;2.40;99.90
54461;DHT22;40371;49.414;11.010;2023-03-11T07:29:40;2.60;99.90
54461;DHT22;40371;49.414;11.010;2023-03-11T07:32:06;2.90;99.90
54461;DHT22;40371;49.414;11.010;2023-03-11T07:34:32;2.90;99.90
54461;DHT22;40371;49.414;11.010;2023-03-11T07:36:58;3.00;99.90
54461;DHT22;40371;49.414;11.010;2023-03-11T07:39:24;3.10;99.90
54461;DHT22;40371;49.414;11.010;2023-03-11T07:41:49;3.10;99.90
54461;DHT22;40371;49.414;11.010;2023-03-11T07:44:15;2.90;99.90
54461;DHT22;40371;49.414;11.010;2023-03-11T07:46:42;2.90;99.90
54461;DHT22;40371;49.414;11.010;2023-03-11T07:49:07;2.90;99.90
54461;DHT22;40371;49.414;11.010;2023-03-11T07:51:35;3.10;99.90
54461;DHT22;40371;49.414;11.010;2023-03-11T07:54:02;2.90;99.90
54461;DHT22;40371;49.414;11.010;2023-03-11T07:56:30;3.00;99.90
54461;DHT22;40371;49.414;11.010;2023-03-11T07:58:58;3.10;99.90
54461;DHT22;40371;49.414;11.010;2023-03-11T08:01:26;3.20;99.90
54461;DHT22;40371;49.414;11.010;2023-03-11T08:03:52;3.40;99.90
54461;DHT22;40371;49.414;11.010;2023-03-11T08:06:26;3.60;99.90
54461;DHT22;40371;49.414;11.010;2023-03-11T08:08:52;4.00;99.90
54461;DHT22;40371;49.414;11.010;2023-03-11T08:11:18;4.10;99.90
54461;DHT22;40371;49.414;11.010;2023-03-11T08:13:46;4.30;99.90
54461;DHT22;40371;49.414;11.010;2023-03-11T08:16:14;4.60;99.90
54461;DHT22;40371;49.414;11.010;2023-03-11T08:18:40;4.20;99.90
54461;DHT22;40371;49.414;11.010;2023-03-11T08:21:08;4.10;99.90
54461;DHT22;40371;49.414;11.010;2023-03-11T08:23:34;4.20;99.90
54461;DHT22;40371;49.414;11.010;2023-03-11T08:26:08;4.20;99.90
54461;DHT22;40371;49.414;11.010;2023-03-11T08:28:34;4.50;99.90
54461;DHT22;40371;49.414;11.010;2023-03-11T08:31:00;4.80;99.90
54461;DHT22;40371;49.414;11.010;2023-03-11T08:33:26;4.80;99.90
54461;DHT22;40371;49.414;11.010;2023-03-11T08:35:52;5.20;99.90
54461;DHT22;40371;49.414;11.010;2023-03-11T08:38:18;4.90;99.90
54461;DHT22;40371;49.414;11.010;2023-03-11T08:40:43;4.90;99.90
54461;DHT22;40371;49.414;11.010;2023-03-11T08:43:13;5.40;99.90
54461;DHT22;40371;49.414;11.010;2023-03-11T08:45:40;6.10;99.90
54461;DHT22;40371;49.414;11.010;2023-03-11T08:48:10;6.30;99.90
54461;DHT22;40371;49.414;11.010;2023-03-11T08:50:41;7.70;99.90
54461;DHT22;40371;49.414;11.010;2023-03-11T08:53:06;7.40;99.90
54461;DHT22;40371;49.414;11.010;2023-03-11T08:55:33;7.70;99.90
54461;DHT22;40371;49.414;11.010;2023-03-11T08:57:59;8.20;99.90
54461;DHT22;40371;49.414;11.010;2023-03-11T09:00:25;9.20;99.90
54461;DHT22;40371;49.414;11.010;2023-03-11T09:02:50;9.60;96.80
54461;DHT22;40371;49.414;11.010;2023-03-11T09:05:16;8.70;96.80
54461;DHT22;40371;49.414;11.010;2023-03-11T09:07:42;8.50;97.50
54461;DHT22;40371;49.414;11.010;2023-03-11T09:10:08;8.50;96.60
54461;DHT22;40371;49.414;11.010;2023-03-11T09:12:33;8.50;99.90
54461;DHT22;40371;49.414;11.010;2023-03-11T09:14:59;7.50;97.70
54461;DHT22;40371;49.414;11.010;2023-03-11T09:17:25;8.50;96.60
54461;DHT22;40371;49.414;11.010;2023-03-11T09:19:51;10.40;98.50
54461;DHT22;40371;49.414;11.010;2023-03-11T09:22:16;11.90;96.40
54461;DHT22;40371;49.414;11.010;2023-03-11T09:24:42;11.20;94.20
54461;DHT22;40371;49.414;11.010;2023-03-11T09:27:07;11.20;92.90
54461;DHT22;40371;49.414;11.010;2023-03-11T09:29:33;9.10;92.10
54461;DHT22;40371;49.414;11.010;2023-03-11T09:31:59;8.50;94.10
54461;DHT22;40371;49.414;11.010;2023-03-11T09:34:25;7.80;93.40
54461;DHT22;40371;49.414;11.010;2023-03-11T09:36:50;7.10;94.50
54461;DHT22;40371;49.414;11.010;2023-03-11T09:39:16;8.40;94.50
54461;DHT22;40371;49.414;11.010;2023-03-11T09:41:55;8.60;92.30
54461;DHT22;40371;49.414;11.010;2023-03-11T09:44:38;8.30;92.80
54461;DHT22;40371;49.414;11.010;2023-03-11T09:49:49;7.50;93.40
54461;DHT22;40371;49.414;11.010;2023-03-11T09:52:31;7.80;94.20
54461;DHT22;40371;49.414;11.010;2023-03-11T09:54:58;8.10;93.80
54461;DHT22;40371;49.414;11.010;2023-03-11T09:57:28;7.30;95.10
54461;DHT22;40371;49.414;11.010;2023-03-11T09:59:56;7.10;95.30
54461;DHT22;40371;49.414;11.010;2023-03-11T10:02:23;7.20;95.50
54461;DHT22;40371;49.414;11.010;2023-03-11T10:05:14;6.80;95.30
54461;DHT22;40371;49.414;11.010;2023-03-11T10:07:44;6.30;96.60
54461;DHT22;40371;49.414;11.010;2023-03-11T10:10:13;6.10;98.00
54461;DHT22;40371;49.414;11.010;2023-03-11T10:20:38;6.40;99.90
54461;DHT22;40371;49.414;11.010;2023-03-11T10:23:12;6.60;99.90
54461;DHT22;40371;49.414;11.010;2023-03-11T10:28:27;7.80;97.20
54461;DHT22;40371;49.414;11.010;2023-03-11T10:31:26;9.30;94.60
54461;DHT22;40371;49.414;11.010;2023-03-11T10:34:02;11.10;90.00
54461;DHT22;40371;49.414;11.010;2023-03-11T10:36:37;10.20;89.80
54461;DHT22;40371;49.414;11.010;2023-03-11T10:39:04;9.60;89.80
54461;DHT22;40371;49.414;11.010;2023-03-11T10:41:43;9.30;86.70
54461;DHT22;40371;49.414;11.010;2023-03-11T10:44:28;8.90;87.60
54461;DHT22;40371;49.414;11.010;2023-03-11T10:46:55;8.90;84.50
54461;DHT22;40371;49.414;11.010;2023-03-11T10:49:21;8.30;86.80
54461;DHT22;40371;49.414;11.010;2023-03-11T10:51:49;8.00;88.00
54461;DHT22;40371;49.414;11.010;2023-03-11T10:54:30;7.50;90.50
54461;DHT22;40371;49.414;11.010;2023-03-11T10:57:03;7.90;90.70
54461;DHT22;40371;49.414;11.010;2023-03-11T11:02:15;6.80;92.60
54461;DHT22;40371;49.414;11.010;2023-03-11T11:04:43;6.80;93.80
54461;DHT22;40371;49.414;11.010;2023-03-11T11:07:31;7.00;94.20
54461;DHT22;40371;49.414;11.010;2023-03-11T11:16:01;9.00;95.30
54461;DHT22;40371;49.414;11.010;2023-03-11T11:21:36;15.20;83.10
54461;DHT22;40371;49.414;11.010;2023-03-11T11:26:26;12.70;75.00
54461;DHT22;40371;49.414;11.010;2023-03-11T11:29:10;11.20;77.20
54461;DHT22;40371;49.414;11.010;2023-03-11T11:31:42;9.20;84.30
54461;DHT22;40371;49.414;11.010;2023-03-11T11:34:29;8.40;88.90
54461;DHT22;40371;49.414;11.010;2023-03-11T11:36:59;8.10;91.00
54461;DHT22;40371;49.414;11.010;2023-03-11T11:39:28;8.10;91.30
54461;DHT22;40371;49.414;11.010;2023-03-11T11:41:55;7.90;92.10
54461;DHT22;40371;49.414;11.010;2023-03-11T11:44:23;8.60;91.20
54461;DHT22;40371;49.414;11.010;2023-03-11T11:46:54;8.30;90.50
54461;DHT22;40371;49.414;11.010;2023-03-11T11:49:28;7.80;89.50
54461;DHT22;40371;49.414;11.010;2023-03-11T11:54:36;7.30;91.20
54461;DHT22;40371;49.414;11.010;2023-03-11T11:57:15;6.70;90.80
54461;DHT22;40371;49.414;11.010;2023-03-11T11:59:41;6.60;91.00
54461;DHT22;40371;49.414;11.010;2023-03-11T12:02:21;6.80;90.90
54461;DHT22;40371;49.414;11.010;2023-03-11T12:05:16;6.80;90.70
54461;DHT22;40371;49.414;11.010;2023-03-11T12:13:12;7.40;89.10
54461;DHT22;40371;49.414;11.010;2023-03-11T12:18:49;7.40;85.10
54461;DHT22;40371;49.414;11.010;2023-03-11T12:24:28;6.80;87.30
54461;DHT22;40371;49.414;11.010;2023-03-11T12:27:02;7.30;88.10
54461;DHT22;40371;49.414;11.010;2023-03-11T12:29:42;6.90;88.50
54461;DHT22;40371;49.414;11.010;2023-03-11T12:35:00;7.60;91.70
54461;DHT22;40371;49.414;11.010;2023-03-11T12:37:29;7.60;90.80
54461;DHT22;40371;49.414;11.010;2023-03-11T12:39:55;6.80;92.40
54461;DHT22;40371;49.414;11.010;2023-03-11T12:42:22;7.20;92.60
54461;DHT22;40371;49.414;11.010;2023-03-11T12:44:51;7.10;92.50
54461;DHT22;40371;49.414;11.010;2023-03-11T12:47:25;7.20;92.50
54461;DHT22;40371;49.414;11.010;2023-03-11T12:50:36;6.80;92.60
54461;DHT22;40371;49.414;11.010;2023-03-11T12:53:03;6.80;93.00
54461;DHT22;40371;49.414;11.010;2023-03-11T12:55:32;6.90;93.80
54461;DHT22;40371;49.414;11.010;2023-03-11T12:58:04;7.10;95.50
54461;DHT22;40371;49.414;11.010;2023-03-11T13:01:04;7.30;96.10
54461;DHT22;40371;49.414;11.010;2023-03-11T13:03:46;7.30;93.90
54461;DHT22;40371;49.414;11.010;2023-03-11T13:08:59;7.10;93.70
54461;DHT22;40371;49.414;11.010;2023-03-11T13:14:09;7.40;93.10
54461;DHT22;40371;49.414;11.010;2023-03-11T13:16:37;7.20;93.00
54461;DHT22;40371;49.414;11.010;2023-03-11T13:21:56;6.60;93.10
54461;DHT22;40371;49.414;11.010;2023-03-11T13:24:38;6.40;93.40
54461;DHT22;40371;49.414;11.010;2023-03-11T13:27:12;6.20;93.80
54461;DHT22;40371;49.414;11.010;2023-03-11T13:29:53;6.20;94.10
54461;DHT22;40371;49.414;11.010;2023-03-11T13:32:47;6.10;94.70
54461;DHT22;40371;49.414;11.010;2023-03-11T13:40:57;6.30;95.00
54461;DHT22;40371;49.414;11.010;2023-03-11T13:43:25;6.10;95.00
54461;DHT22;40371;49.414;11.010;2023-03-11T13:45:59;6.20;94.60
54461;DHT22;40371;49.414;11.010;2023-03-11T13:48:41;5.80;95.00
54461;DHT22;40371;49.414;11.010;2023-03-11T13:56:17;5.20;94.70
54461;DHT22;40371;49.414;11.010;2023-03-11T13:58:46;5.30;94.70
54461;DHT22;40371;49.414;11.010;2023-03-11T14:01:15;5.40;95.00
54461;DHT22;40371;49.414;11.010;2023-03-11T14:03:47;5.40;94.80
54461;DHT22;40371;49.414;11.010;2023-03-11T14:06:19;5.00;95.00
54461;DHT22;40371;49.414;11.010;2023-03-11T14:08:53;5.20;95.30
54461;DHT22;40371;49.414;11.010;2023-03-11T14:11:19;5.20;95.30
54461;DHT22;40371;49.414;11.010;2023-03-11T14:13:49;5.00;95.20
54461;DHT22;40371;49.414;11.010;2023-03-11T14:16:28;5.00;95.40
54461;DHT22;40371;49.414;11.010;2023-03-11T14:21:29;5.00;95.60
54461;DHT22;40371;49.414;11.010;2023-03-11T14:23:56;4.90;96.30
54461;DHT22;40371;49.414;11.010;2023-03-11T14:26:27;5.40;96.10
54461;DHT22;40371;49.414;11.010;2023-03-11T14:28:56;5.50;95.50
54461;DHT22;40371;49.414;11.010;2023-03-11T14:31:43;5.70;95.40
54461;DHT22;40371;49.414;11.010;2023-03-11T14:36:46;6.30;93.30
54461;DHT22;40371;49.414;11.010;2023-03-11T14:39:30;6.10;91.80
54461;DHT22;40371;49.414;11.010;2023-03-11T14:42:12;6.50;91.10
54461;DHT22;40371;49.414;11.010;2023-03-11T14:44:46;6.40;89.90
54461;DHT22;40371;49.414;11.010;2023-03-11T14:47:16;6.50;90.10
54461;DHT22;40371;49.414;11.010;2023-03-11T14:49:43;6.50;90.30
54461;DHT22;40371;49.414;11.010;2023-03-11T14:52:47;6.40;90.30
54461;DHT22;40371;49.414;11.010;2023-03-11T14:55:10;6.50;90.30
54461;DHT22;40371;49.414;11.010;2023-03-11T14:57:44;6.70;90.40
54461;DHT22;40371;49.414;11.010;2023-03-11T15:00:19;6.80;91.80
54461;DHT22;40371;49.414;11.010;2023-03-11T15:06:13;6.60;90.80
54461;DHT22;40371;49.414;11.010;2023-03-11T15:09:01;6.30;90.60
54461;DHT22;40371;49.414;11.010;2023-03-11T15:11:27;5.90;91.00
54461;DHT22;40371;49.414;11.010;2023-03-11T15:14:07;6.40;92.30
54461;DHT22;40371;49.414;11.010;2023-03-11T15:16:35;6.40;91.60
54461;DHT22;40371;49.414;11.010;2023-03-11T15:21:48;6.10;92.00
54461;DHT22;40371;49.414;11.010;2023-03-11T15:24:37;5.80;92.00
54461;DHT22;40371;49.414;11.010;2023-03-11T15:27:06;5.50;92.10
54461;DHT22;40371;49.414;11.010;2023-03-11T15:29:33;5.20;92.60
54461;DHT22;40371;49.414;11.010;2023-03-11T15:31:59;5.30;93.10
54461;DHT22;40371;49.414;11.010;2023-03-11T15:34:30;5.20;93.40
54461;DHT22;40371;49.414;11.010;2023-03-11T15:36:59;5.00;93.90
54461;DHT22;40371;49.414;11.010;2023-03-11T15:42:01;5.10;94.10
54461;DHT22;40371;49.414;11.010;2023-03-11T15:44:30;5.30;94.40
54461;DHT22;40371;49.414;11.010;2023-03-11T15:46:57;5.30;94.40
54461;DHT22;40371;49.414;11.010;2023-03-11T15:49:27;5.20;94.60
54461;DHT22;40371;49.414;11.010;2023-03-11T15:52:00;5.20;94.80
54461;DHT22;40371;49.414;11.010;2023-03-11T15:54:26;5.20;95.10
54461;DHT22;40371;49.414;11.010;2023-03-11T15:56:55;5.20;94.90
54461;DHT22;40371;49.414;11.010;2023-03-11T15:59:25;5.30;94.80
54461;DHT22;40371;49.414;11.010;2023-03-11T16:01:51;5.30;95.00
54461;DHT22;40371;49.414;11.010;2023-03-11T16:04:18;5.10;95.10
54461;DHT22;40371;49.414;11.010;2023-03-11T16:06:45;5.10;95.60
54461;DHT22;40371;49.414;11.010;2023-03-11T16:09:12;5.10;95.10
54461;DHT22;40371;49.414;11.010;2023-03-11T16:11:39;5.10;94.70
54461;DHT22;40371;49.414;11.010;2023-03-11T16:14:05;5.10;94.90
54461;DHT22;40371;49.414;11.010;2023-03-11T16:16:31;5.00;95.00
54461;DHT22;40371;49.414;11.010;2023-03-11T16:18:57;5.00;95.60
54461;DHT22;40371;49.414;11.010;2023-03-11T16:21:26;5.00;95.70
54461;DHT22;40371;49.414;11.010;2023-03-11T16:23:55;4.90;96.00
54461;DHT22;40371;49.414;11.010;2023-03-11T16:26:21;4.90;95.90
54461;DHT22;40371;49.414;11.010;2023-03-11T16:28:47;4.80;95.90
54461;DHT22;40371;49.414;11.010;2023-03-11T16:31:12;4.80;96.10
54461;DHT22;40371;49.414;11.010;2023-03-11T16:33:38;4.90;96.20
54461;DHT22;40371;49.414;11.010;2023-03-11T16:36:04;4.80;96.20
54461;DHT22;40371;49.414;11.010;2023-03-11T16:38:31;4.80;96.10
54461;DHT22;40371;49.414;11.010;2023-03-11T16:41:06;4.80;96.20
54461;DHT22;40371;49.414;11.010;2023-03-11T16:43:32;4.90;96.20
54461;DHT22;40371;49.414;11.010;2023-03-11T16:45:58;5.00;96.20
54461;DHT22;40371;49.414;11.010;2023-03-11T16:48:23;4.90;96.20
54461;DHT22;40371;49.414;11.010;2023-03-11T16:50:49;4.70;96.40
54461;DHT22;40371;49.414;11.010;2023-03-11T16:53:15;4.80;96.50
54461;DHT22;40371;49.414;11.010;2023-03-11T16:55:44;4.80;96.50
54461;DHT22;40371;49.414;11.010;2023-03-11T16:58:10;4.80;96.60
54461;DHT22;40371;49.414;11.010;2023-03-11T17:00:36;4.60;96.90
54461;DHT22;40371;49.414;11.010;2023-03-11T17:03:02;4.70;96.70
54461;DHT22;40371;49.414;11.010;2023-03-11T17:05:28;4.70;96.60
54461;DHT22;40371;49.414;11.010;2023-03-11T17:07:55;4.70;96.70
54461;DHT22;40371;49.414;11.010;2023-03-11T17:10:26;4.80;96.90